sensor_id;sensor_type;location;lat;lon;timestamp;pressure;altitude;pressure_sealevel;temperature;humidity
4570;BME280;2297;51.442;6.996;2024-01-07T00:00:21;100231.31;;;5.87;50.82
4570;BME280;2297;51.442;6.996;2024-01-07T00:02:48;100234.81;;;5.89;50.53
4570;BME280;2297;51.442;6.996;2024-01-07T00:05:15;100243.53;;;5.88;50.82
4570;BME280;2297;51.442;6.996;2024-01-07T00:07:41;100240.03;;;5.92;50.60
4570;BME280;2297;51.442;6.996;2024-01-07T00:10:10;100238.28;;;5.94;50.93
4570;BME280;2297;51.442;6.996;2024-01-07T00:12:36;100243.53;;;5.88;50.85
4570;BME280;2297;51.442;6.996;2024-01-07T00:15:04;100245.28;;;5.92;50.89
4570;BME280;2297;51.442;6.996;2024-01-07T00:17:30;100251.38;;;5.91;50.91
4570;BME280;2297;51.442;6.996;2024-01-07T00:19:57;100248.78;;;5.91;50.67
4570;BME280;2297;51.442;6.996;2024-01-07T00:22:23;100251.38;;;5.98;51.00
4570;BME280;2297;51.442;6.996;2024-01-07T00:24:50;100252.25;;;5.94;50.51
4570;BME280;2297;51.442;6.996;2024-01-07T00:27:18;100249.66;;;5.94;50.58
4570;BME280;2297;51.442;6.996;2024-01-07T00:29:45;100259.28;;;5.88;50.79
4570;BME280;2297;51.442;6.996;2024-01-07T00:32:11;100260.13;;;5.99;50.69
4570;BME280;2297;51.442;6.996;2024-01-07T00:34:38;100259.28;;;5.94;50.54
4570;BME280;2297;51.442;6.996;2024-01-07T00:37:05;100260.13;;;6.02;50.53
4570;BME280;2297;51.442;6.996;2024-01-07T00:39:31;100261.88;;;5.97;50.72
4570;BME280;2297;51.442;6.996;2024-01-07T00:41:58;100258.38;;;6.00;50.40
4570;BME280;2297;51.442;6.996;2024-01-07T00:44:26;100254.00;;;5.97;50.67
4570;BME280;2297;51.442;6.996;2024-01-07T00:46:53;100264.50;;;5.94;50.95
4570;BME280;2297;51.442;6.996;2024-01-07T00:49:19;100262.72;;;5.97;50.39
4570;BME280;2297;51.442;6.996;2024-01-07T00:51:46;100257.53;;;5.93;50.66
4570;BME280;2297;51.442;6.996;2024-01-07T00:54:13;100261.00;;;5.95;50.67
4570;BME280;2297;51.442;6.996;2024-01-07T00:56:39;100265.38;;;5.88;50.77
4570;BME280;2297;51.442;6.996;2024-01-07T00:59:06;100275.03;;;5.85;50.78
4570;BME280;2297;51.442;6.996;2024-01-07T01:01:34;100270.63;;;5.90;50.76
4570;BME280;2297;51.442;6.996;2024-01-07T01:04:00;100262.78;;;5.90;50.83
4570;BME280;2297;51.442;6.996;2024-01-07T01:06:27;100275.00;;;5.88;50.41
4570;BME280;2297;51.442;6.996;2024-01-07T01:08:54;100278.50;;;5.84;50.56
4570;BME280;2297;51.442;6.996;2024-01-07T01:11:20;100280.25;;;5.85;50.48
4570;BME280;2297;51.442;6.996;2024-01-07T01:13:47;100280.25;;;5.85;50.71
4570;BME280;2297;51.442;6.996;2024-01-07T01:16:13;100286.38;;;5.85;50.14
4570;BME280;2297;51.442;6.996;2024-01-07T01:18:41;100292.50;;;5.76;50.49
4570;BME280;2297;51.442;6.996;2024-01-07T01:21:09;100292.50;;;5.76;50.35
4570;BME280;2297;51.442;6.996;2024-01-07T01:23:37;100305.56;;;5.62;50.30
4570;BME280;2297;51.442;6.996;2024-01-07T01:26:04;100301.22;;;5.80;50.40
4570;BME280;2297;51.442;6.996;2024-01-07T01:28:30;100306.47;;;5.85;50.65
4570;BME280;2297;51.442;6.996;2024-01-07T01:30:57;100296.00;;;5.85;50.58
4570;BME280;2297;51.442;6.996;2024-01-07T01:33:23;100300.34;;;5.87;50.30
4570;BME280;2297;51.442;6.996;2024-01-07T01:35:51;100309.97;;;5.90;50.02
4570;BME280;2297;51.442;6.996;2024-01-07T01:38:18;100315.19;;;5.77;49.89
4570;BME280;2297;51.442;6.996;2024-01-07T01:40:51;100316.09;;;5.78;49.97
4570;BME280;2297;51.442;6.996;2024-01-07T01:43:22;100317.81;;;5.62;50.32
4570;BME280;2297;51.442;6.996;2024-01-07T01:45:49;100323.97;;;5.67;50.46
4570;BME280;2297;51.442;6.996;2024-01-07T01:48:15;100322.22;;;5.68;50.35
4570;BME280;2297;51.442;6.996;2024-01-07T01:50:42;100324.78;;;5.63;50.61
4570;BME280;2297;51.442;6.996;2024-01-07T01:53:10;100329.16;;;5.61;50.78
4570;BME280;2297;51.442;6.996;2024-01-07T01:55:37;100327.44;;;5.69;50.86
4570;BME280;2297;51.442;6.996;2024-01-07T01:58:04;100329.22;;;5.67;50.81
4570;BME280;2297;51.442;6.996;2024-01-07T02:00:30;100325.69;;;5.68;51.11
4570;BME280;2297;51.442;6.996;2024-01-07T02:02:57;100320.41;;;5.59;50.73
4570;BME280;2297;51.442;6.996;2024-01-07T02:05:26;100323.91;;;5.53;50.75
4570;BME280;2297;51.442;6.996;2024-01-07T02:07:53;100321.28;;;5.45;51.25
4570;BME280;2297;51.442;6.996;2024-01-07T02:10:23;100330.91;;;5.46;51.10
4570;BME280;2297;51.442;6.996;2024-01-07T02:12:49;100332.66;;;5.51;51.45
4570;BME280;2297;51.442;6.996;2024-01-07T02:15:16;100330.91;;;5.49;51.13
4570;BME280;2297;51.442;6.996;2024-01-07T02:17:42;100337.91;;;5.47;51.28
4570;BME280;2297;51.442;6.996;2024-01-07T02:20:10;100339.63;;;5.45;51.05
4570;BME280;2297;51.442;6.996;2024-01-07T02:22:37;100339.63;;;5.52;51.15
4570;BME280;2297;51.442;6.996;2024-01-07T02:25:05;100352.72;;;5.47;51.21
4570;BME280;2297;51.442;6.996;2024-01-07T02:27:32;100344.88;;;5.56;51.08
4570;BME280;2297;51.442;6.996;2024-01-07T02:29:58;100354.47;;;5.57;51.13
4570;BME280;2297;51.442;6.996;2024-01-07T02:32:25;100348.34;;;5.54;50.81
4570;BME280;2297;51.442;6.996;2024-01-07T02:34:52;100344.88;;;5.52;50.88
4570;BME280;2297;51.442;6.996;2024-01-07T02:37:18;100346.63;;;5.62;51.01
4570;BME280;2297;51.442;6.996;2024-01-07T02:39:45;100355.34;;;5.64;50.58
4570;BME280;2297;51.442;6.996;2024-01-07T02:42:13;100352.75;;;5.61;50.24
4570;BME280;2297;51.442;6.996;2024-01-07T02:44:40;100348.34;;;5.54;50.03
4570;BME280;2297;51.442;6.996;2024-01-07T02:47:06;100351.88;;;5.56;50.20
4570;BME280;2297;51.442;6.996;2024-01-07T02:49:33;100362.34;;;5.53;50.05
4570;BME280;2297;51.442;6.996;2024-01-07T02:51:59;100358.00;;;5.58;50.11
4570;BME280;2297;51.442;6.996;2024-01-07T02:54:26;100364.09;;;5.57;49.58
4570;BME280;2297;51.442;6.996;2024-01-07T02:56:53;100366.69;;;5.54;49.76
4570;BME280;2297;51.442;6.996;2024-01-07T02:59:21;100369.31;;;5.51;49.83
4570;BME280;2297;51.442;6.996;2024-01-07T03:01:47;100365.84;;;5.55;49.88
4570;BME280;2297;51.442;6.996;2024-01-07T03:04:15;100382.41;;;5.52;49.87
4570;BME280;2297;51.442;6.996;2024-01-07T03:06:42;100381.53;;;5.45;49.72
4570;BME280;2297;51.442;6.996;2024-01-07T03:09:08;100377.16;;;5.44;49.85
4570;BME280;2297;51.442;6.996;2024-01-07T03:11:39;100386.78;;;5.42;49.95
4570;BME280;2297;51.442;6.996;2024-01-07T03:14:06;100388.53;;;5.43;49.60
4570;BME280;2297;51.442;6.996;2024-01-07T03:16:34;100399.00;;;5.40;49.55
4570;BME280;2297;51.442;6.996;2024-01-07T03:19:01;100398.97;;;5.31;49.55
4570;BME280;2297;51.442;6.996;2024-01-07T03:21:29;100400.75;;;5.38;49.25
4570;BME280;2297;51.442;6.996;2024-01-07T03:23:56;100406.84;;;5.40;49.23
4570;BME280;2297;51.442;6.996;2024-01-07T03:26:23;100400.75;;;5.44;49.32
4570;BME280;2297;51.442;6.996;2024-01-07T03:28:49;100400.72;;;5.35;49.39
4570;BME280;2297;51.442;6.996;2024-01-07T03:31:16;100402.50;;;5.42;49.55
4570;BME280;2297;51.442;6.996;2024-01-07T03:33:46;100404.22;;;5.28;48.92
4570;BME280;2297;51.442;6.996;2024-01-07T03:36:13;100409.47;;;5.25;48.98
4570;BME280;2297;51.442;6.996;2024-01-07T03:38:41;100400.69;;;5.13;49.32
4570;BME280;2297;51.442;6.996;2024-01-07T03:41:07;100412.03;;;5.20;49.19
4570;BME280;2297;51.442;6.996;2024-01-07T03:43:34;100405.06;;;5.14;49.21
4570;BME280;2297;51.442;6.996;2024-01-07T03:46:01;100400.72;;;5.20;49.17
4570;BME280;2297;51.442;6.996;2024-01-07T03:48:27;100403.34;;;5.27;49.19
4570;BME280;2297;51.442;6.996;2024-01-07T03:50:55;100407.69;;;5.24;49.17
4570;BME280;2297;51.442;6.996;2024-01-07T03:53:22;100414.66;;;5.23;49.37
4570;BME280;2297;51.442;6.996;2024-01-07T03:55:49;100411.19;;;5.26;49.22
4570;BME280;2297;51.442;6.996;2024-01-07T03:58:15;100402.47;;;5.27;49.09
4570;BME280;2297;51.442;6.996;2024-01-07T04:00:42;100409.47;;;5.25;48.70
4570;BME280;2297;51.442;6.996;2024-01-07T04:03:08;100411.19;;;5.20;49.21
4570;BME280;2297;51.442;6.996;2024-01-07T04:05:35;100416.41;;;5.23;48.97
4570;BME280;2297;51.442;6.996;2024-01-07T04:08:04;100416.44;;;5.29;49.01
4570;BME280;2297;51.442;6.996;2024-01-07T04:10:31;100412.91;;;5.14;48.64
4570;BME280;2297;51.442;6.996;2024-01-07T04:12:58;100414.63;;;5.11;49.35
4570;BME280;2297;51.442;6.996;2024-01-07T04:15:24;100419.88;;;5.12;48.81
4570;BME280;2297;51.442;6.996;2024-01-07T04:17:51;100424.25;;;5.12;49.17
4570;BME280;2297;51.442;6.996;2024-01-07T04:20:17;100433.84;;;5.18;48.91
4570;BME280;2297;51.442;6.996;2024-01-07T04:22:44;100432.09;;;5.10;48.75
4570;BME280;2297;51.442;6.996;2024-01-07T04:25:12;100435.56;;;5.12;48.77
4570;BME280;2297;51.442;6.996;2024-01-07T04:27:39;100434.69;;;5.04;48.55
4570;BME280;2297;51.442;6.996;2024-01-07T04:30:06;100442.53;;;5.07;48.66
4570;BME280;2297;51.442;6.996;2024-01-07T04:32:32;100442.56;;;5.10;48.79
4570;BME280;2297;51.442;6.996;2024-01-07T04:34:59;100446.06;;;5.11;48.78
4570;BME280;2297;51.442;6.996;2024-01-07T04:37:26;100447.81;;;5.13;48.90
4570;BME280;2297;51.442;6.996;2024-01-07T04:39:52;100452.13;;;5.01;48.68
4570;BME280;2297;51.442;6.996;2024-01-07T04:42:20;100448.50;;;4.75;49.10
4570;BME280;2297;51.442;6.996;2024-01-07T04:44:47;100456.44;;;4.94;48.65
4570;BME280;2297;51.442;6.996;2024-01-07T04:47:25;100456.47;;;4.97;48.87
4570;BME280;2297;51.442;6.996;2024-01-07T04:49:52;100451.25;;;5.00;48.87
4570;BME280;2297;51.442;6.996;2024-01-07T04:52:18;100454.75;;;5.05;48.84
4570;BME280;2297;51.442;6.996;2024-01-07T04:54:45;100464.34;;;4.98;48.44
4570;BME280;2297;51.442;6.996;2024-01-07T04:57:11;100461.69;;;4.94;48.74
4570;BME280;2297;51.442;6.996;2024-01-07T04:59:39;100462.56;;;4.94;48.74
4570;BME280;2297;51.442;6.996;2024-01-07T05:02:06;100466.91;;;4.94;48.86
4570;BME280;2297;51.442;6.996;2024-01-07T05:04:33;100465.19;;;4.93;48.59
4570;BME280;2297;51.442;6.996;2024-01-07T05:06:59;100470.44;;;4.93;48.70
4570;BME280;2297;51.442;6.996;2024-01-07T05:09:26;100466.91;;;4.91;48.86
4570;BME280;2297;51.442;6.996;2024-01-07T05:11:52;100468.63;;;4.82;48.87
4570;BME280;2297;51.442;6.996;2024-01-07T05:14:19;100475.63;;;4.87;48.92
4570;BME280;2297;51.442;6.996;2024-01-07T05:16:49;100478.19;;;4.79;49.07
4570;BME280;2297;51.442;6.996;2024-01-07T05:19:16;100480.81;;;4.77;48.91
4570;BME280;2297;51.442;6.996;2024-01-07T05:21:42;100477.34;;;4.81;48.70
4570;BME280;2297;51.442;6.996;2024-01-07T05:24:09;100480.75;;;4.70;48.96
4570;BME280;2297;51.442;6.996;2024-01-07T05:26:38;100492.94;;;4.66;49.12
4570;BME280;2297;51.442;6.996;2024-01-07T05:29:05;100494.69;;;4.64;49.07
4570;BME280;2297;51.442;6.996;2024-01-07T05:31:31;100501.66;;;4.65;48.96
4570;BME280;2297;51.442;6.996;2024-01-07T05:33:59;100503.41;;;4.66;48.74
4570;BME280;2297;51.442;6.996;2024-01-07T05:36:26;100501.63;;;4.63;49.03
4570;BME280;2297;51.442;6.996;2024-01-07T05:38:53;100503.44;;;4.69;48.71
4570;BME280;2297;51.442;6.996;2024-01-07T05:41:19;100501.72;;;4.74;48.83
4570;BME280;2297;51.442;6.996;2024-01-07T05:43:46;100513.91;;;4.75;48.63
4570;BME280;2297;51.442;6.996;2024-01-07T05:46:12;100510.41;;;4.70;48.49
4570;BME280;2297;51.442;6.996;2024-01-07T05:48:43;100515.56;;;4.58;48.43
4570;BME280;2297;51.442;6.996;2024-01-07T05:51:11;100521.66;;;4.58;48.40
4570;BME280;2297;51.442;6.996;2024-01-07T05:53:39;100521.66;;;4.58;48.74
4570;BME280;2297;51.442;6.996;2024-01-07T05:56:06;100519.06;;;4.61;48.72
4570;BME280;2297;51.442;6.996;2024-01-07T05:58:33;100529.56;;;4.64;48.73
4570;BME280;2297;51.442;6.996;2024-01-07T06:00:59;100532.16;;;4.63;48.88
4570;BME280;2297;51.442;6.996;2024-01-07T06:03:26;100533.06;;;4.65;48.63
4570;BME280;2297;51.442;6.996;2024-01-07T06:06:05;100540.94;;;4.70;48.73
4570;BME280;2297;51.442;6.996;2024-01-07T06:08:33;100541.78;;;4.70;48.72
4570;BME280;2297;51.442;6.996;2024-01-07T06:11:00;100546.16;;;4.71;48.56
4570;BME280;2297;51.442;6.996;2024-01-07T06:13:27;100554.06;;;4.77;48.44
4570;BME280;2297;51.442;6.996;2024-01-07T06:15:53;100560.94;;;4.66;48.30
4570;BME280;2297;51.442;6.996;2024-01-07T06:18:20;100554.88;;;4.69;48.21
4570;BME280;2297;51.442;6.996;2024-01-07T06:20:46;100558.41;;;4.77;48.39
4570;BME280;2297;51.442;6.996;2024-01-07T06:23:14;100559.31;;;4.80;48.44
4570;BME280;2297;51.442;6.996;2024-01-07T06:25:42;100560.22;;;4.81;48.01
4570;BME280;2297;51.442;6.996;2024-01-07T06:28:08;100572.41;;;4.80;48.14
4570;BME280;2297;51.442;6.996;2024-01-07T06:30:36;100568.94;;;4.83;47.99
4570;BME280;2297;51.442;6.996;2024-01-07T06:33:03;100582.84;;;4.77;48.04
4570;BME280;2297;51.442;6.996;2024-01-07T06:35:30;100582.78;;;4.68;47.83
4570;BME280;2297;51.442;6.996;2024-01-07T06:37:57;100587.13;;;4.66;47.80
4570;BME280;2297;51.442;6.996;2024-01-07T06:40:23;100585.31;;;4.56;47.75
4570;BME280;2297;51.442;6.996;2024-01-07T06:42:51;100587.88;;;4.53;47.74
4570;BME280;2297;51.442;6.996;2024-01-07T06:45:18;100593.97;;;4.52;48.82
4570;BME280;2297;51.442;6.996;2024-01-07T06:47:44;100600.09;;;4.49;48.01
4570;BME280;2297;51.442;6.996;2024-01-07T06:50:11;100595.72;;;4.53;48.14
4570;BME280;2297;51.442;6.996;2024-01-07T06:52:38;100604.47;;;4.55;48.02
4570;BME280;2297;51.442;6.996;2024-01-07T06:55:05;100610.59;;;4.55;48.20
4570;BME280;2297;51.442;6.996;2024-01-07T06:57:32;100604.50;;;4.58;48.28
4570;BME280;2297;51.442;6.996;2024-01-07T07:00:00;100611.50;;;4.59;47.87
4570;BME280;2297;51.442;6.996;2024-01-07T07:02:27;100615.91;;;4.66;48.08
4570;BME280;2297;51.442;6.996;2024-01-07T07:04:54;100611.50;;;4.59;48.10
4570;BME280;2297;51.442;6.996;2024-01-07T07:07:21;100618.50;;;4.63;47.95
4570;BME280;2297;51.442;6.996;2024-01-07T07:09:47;100625.44;;;4.58;47.88
4570;BME280;2297;51.442;6.996;2024-01-07T07:12:14;100624.50;;;4.54;48.29
4570;BME280;2297;51.442;6.996;2024-01-07T07:14:40;100629.72;;;4.51;48.31
4570;BME280;2297;51.442;6.996;2024-01-07T07:17:08;100640.28;;;4.60;48.68
4570;BME280;2297;51.442;6.996;2024-01-07T07:19:35;100643.72;;;4.55;48.22
4570;BME280;2297;51.442;6.996;2024-01-07T07:22:01;100647.19;;;4.55;47.69
4570;BME280;2297;51.442;6.996;2024-01-07T07:24:28;100645.44;;;4.51;47.90
4570;BME280;2297;51.442;6.996;2024-01-07T07:26:55;100658.50;;;4.53;47.91
4570;BME280;2297;51.442;6.996;2024-01-07T07:29:21;100657.56;;;4.43;47.68
4570;BME280;2297;51.442;6.996;2024-01-07T07:31:48;100665.25;;;4.29;47.84
4570;BME280;2297;51.442;6.996;2024-01-07T07:34:16;100668.78;;;4.31;47.94
4570;BME280;2297;51.442;6.996;2024-01-07T07:36:43;100661.84;;;4.36;47.88
4570;BME280;2297;51.442;6.996;2024-01-07T07:39:10;100675.84;;;4.41;47.52
4570;BME280;2297;51.442;6.996;2024-01-07T07:41:36;100677.53;;;4.36;47.32
4570;BME280;2297;51.442;6.996;2024-01-07T07:44:03;100688.00;;;4.38;47.30
4570;BME280;2297;51.442;6.996;2024-01-07T07:46:30;100696.78;;;4.41;47.44
4570;BME280;2297;51.442;6.996;2024-01-07T07:48:57;100694.19;;;4.46;47.46
4570;BME280;2297;51.442;6.996;2024-01-07T07:51:25;100700.16;;;4.31;47.17
4570;BME280;2297;51.442;6.996;2024-01-07T07:53:52;100698.31;;;4.24;47.16
4570;BME280;2297;51.442;6.996;2024-01-07T07:56:18;100710.63;;;4.34;47.00
4570;BME280;2297;51.442;6.996;2024-01-07T07:58:45;100716.78;;;4.36;46.80
4570;BME280;2297;51.442;6.996;2024-01-07T08:01:12;100719.41;;;4.39;46.91
4570;BME280;2297;51.442;6.996;2024-01-07T08:03:39;100720.41;;;4.51;46.92
4570;BME280;2297;51.442;6.996;2024-01-07T08:06:06;100718.69;;;4.54;47.24
4570;BME280;2297;51.442;6.996;2024-01-07T08:08:34;100726.31;;;4.34;47.90
4570;BME280;2297;51.442;6.996;2024-01-07T08:11:00;100742.00;;;4.31;47.80
4570;BME280;2297;51.442;6.996;2024-01-07T08:13:27;100738.44;;;4.27;47.68
4570;BME280;2297;51.442;6.996;2024-01-07T08:15:53;100741.13;;;4.30;47.26
4570;BME280;2297;51.442;6.996;2024-01-07T08:18:20;100748.16;;;4.38;47.30
4570;BME280;2297;51.442;6.996;2024-01-07T08:20:47;100751.69;;;4.40;47.55
4570;BME280;2297;51.442;6.996;2024-01-07T08:23:13;100754.41;;;4.49;47.14
4570;BME280;2297;51.442;6.996;2024-01-07T08:25:42;100761.28;;;4.42;47.06
4570;BME280;2297;51.442;6.996;2024-01-07T08:28:10;100769.09;;;4.38;47.42
4570;BME280;2297;51.442;6.996;2024-01-07T08:30:36;100767.31;;;4.35;47.26
4570;BME280;2297;51.442;6.996;2024-01-07T08:33:03;100765.66;;;4.43;47.41
4570;BME280;2297;51.442;6.996;2024-01-07T08:35:30;100761.34;;;4.45;46.62
4570;BME280;2297;51.442;6.996;2024-01-07T08:37:57;100771.75;;;4.42;46.74
4570;BME280;2297;51.442;6.996;2024-01-07T08:40:24;100772.56;;;4.38;46.52
4570;BME280;2297;51.442;6.996;2024-01-07T08:42:52;100774.22;;;4.30;46.34
4570;BME280;2297;51.442;6.996;2024-01-07T08:45:18;100777.69;;;4.27;46.43
4570;BME280;2297;51.442;6.996;2024-01-07T08:47:45;100778.34;;;4.11;46.37
4570;BME280;2297;51.442;6.996;2024-01-07T08:50:26;100782.78;;;4.18;46.48
4570;BME280;2297;51.442;6.996;2024-01-07T08:53:27;100785.34;;;4.12;45.93
4570;BME280;2297;51.442;6.996;2024-01-07T08:55:53;100803.38;;;3.93;45.66
4570;BME280;2297;51.442;6.996;2024-01-07T08:58:21;100799.13;;;4.00;45.85
4570;BME280;2297;51.442;6.996;2024-01-07T09:00:48;100806.16;;;4.06;45.66
4570;BME280;2297;51.442;6.996;2024-01-07T09:03:15;100805.94;;;3.92;45.51
4570;BME280;2297;51.442;6.996;2024-01-07T09:05:46;100805.13;;;3.94;45.67
4570;BME280;2297;51.442;6.996;2024-01-07T09:08:12;100811.03;;;3.82;45.49
4570;BME280;2297;51.442;6.996;2024-01-07T09:10:39;100811.19;;;3.92;45.58
4570;BME280;2297;51.442;6.996;2024-01-07T09:13:06;100814.66;;;3.91;45.40
4570;BME280;2297;51.442;6.996;2024-01-07T09:15:35;100811.09;;;3.86;45.37
4570;BME280;2297;51.442;6.996;2024-01-07T09:18:01;100810.34;;;3.94;45.05
4570;BME280;2297;51.442;6.996;2024-01-07T09:20:28;100824.22;;;3.90;45.25
4570;BME280;2297;51.442;6.996;2024-01-07T09:22:58;100819.97;;;3.97;45.57
4570;BME280;2297;51.442;6.996;2024-01-07T09:25:24;100821.81;;;4.04;45.50
4570;BME280;2297;51.442;6.996;2024-01-07T09:27:51;100819.91;;;3.91;47.64
4570;BME280;2297;51.442;6.996;2024-01-07T09:30:18;100830.75;;;4.19;47.18
4570;BME280;2297;51.442;6.996;2024-01-07T09:32:45;100833.16;;;4.05;46.28
4570;BME280;2297;51.442;6.996;2024-01-07T09:38:33;100841.28;;;4.25;44.99
4570;BME280;2297;51.442;6.996;2024-01-07T09:41:00;100849.91;;;4.18;44.67
4570;BME280;2297;51.442;6.996;2024-01-07T09:43:28;100846.34;;;4.12;44.50
4570;BME280;2297;51.442;6.996;2024-01-07T09:45:56;100854.31;;;4.22;44.66
4570;BME280;2297;51.442;6.996;2024-01-07T09:48:25;100856.75;;;4.09;44.92
4570;BME280;2297;51.442;6.996;2024-01-07T09:50:52;100846.50;;;4.25;44.69
4570;BME280;2297;51.442;6.996;2024-01-07T09:53:20;100850.75;;;4.18;44.22
4570;BME280;2297;51.442;6.996;2024-01-07T09:55:52;100856.78;;;4.12;44.64
4570;BME280;2297;51.442;6.996;2024-01-07T09:58:19;100866.34;;;4.10;44.83
4570;BME280;2297;51.442;6.996;2024-01-07T10:00:46;100858.50;;;4.10;44.96
4570;BME280;2297;51.442;6.996;2024-01-07T10:03:26;100863.81;;;4.17;44.66
4570;BME280;2297;51.442;6.996;2024-01-07T10:05:53;100861.03;;;4.04;44.46
4570;BME280;2297;51.442;6.996;2024-01-07T10:08:20;100863.81;;;4.17;44.52
4570;BME280;2297;51.442;6.996;2024-01-07T10:10:48;100873.38;;;4.14;44.39
4570;BME280;2297;51.442;6.996;2024-01-07T10:13:15;100870.72;;;4.11;44.14
4570;BME280;2297;51.442;6.996;2024-01-07T10:15:41;100868.22;;;4.19;44.24
4570;BME280;2297;51.442;6.996;2024-01-07T10:18:08;100863.03;;;4.24;44.11
4570;BME280;2297;51.442;6.996;2024-01-07T10:20:36;100866.69;;;4.34;43.94
4570;BME280;2297;51.442;6.996;2024-01-07T10:23:04;100869.97;;;4.19;43.85
4570;BME280;2297;51.442;6.996;2024-01-07T10:25:32;100867.41;;;4.25;43.75
4570;BME280;2297;51.442;6.996;2024-01-07T10:27:59;100869.16;;;4.23;44.33
4570;BME280;2297;51.442;6.996;2024-01-07T10:30:26;100870.84;;;4.21;43.85
4570;BME280;2297;51.442;6.996;2024-01-07T10:32:55;100871.66;;;4.15;43.70
4570;BME280;2297;51.442;6.996;2024-01-07T10:35:28;100873.34;;;4.13;43.59
4570;BME280;2297;51.442;6.996;2024-01-07T10:37:57;100880.44;;;4.20;43.44
4570;BME280;2297;51.442;6.996;2024-01-07T10:40:25;100867.13;;;4.03;44.09
4570;BME280;2297;51.442;6.996;2024-01-07T10:42:52;100871.50;;;4.06;43.76
4570;BME280;2297;51.442;6.996;2024-01-07T10:45:19;100875.13;;;4.14;43.27
4570;BME280;2297;51.442;6.996;2024-01-07T10:47:48;100873.38;;;4.14;42.73
4570;BME280;2297;51.442;6.996;2024-01-07T10:50:16;100878.44;;;4.04;42.84
4570;BME280;2297;51.442;6.996;2024-01-07T10:52:48;100882.81;;;4.03;43.12
4570;BME280;2297;51.442;6.996;2024-01-07T10:55:18;100888.06;;;4.06;42.96
4570;BME280;2297;51.442;6.996;2024-01-07T10:57:47;100886.28;;;4.05;43.05
4570;BME280;2297;51.442;6.996;2024-01-07T11:00:15;100892.44;;;4.06;42.65
4570;BME280;2297;51.442;6.996;2024-01-07T11:02:53;100886.22;;;3.99;43.19
4570;BME280;2297;51.442;6.996;2024-01-07T11:05:26;100892.38;;;4.03;43.21
4570;BME280;2297;51.442;6.996;2024-01-07T11:08:01;100895.06;;;4.07;43.16
4570;BME280;2297;51.442;6.996;2024-01-07T11:10:37;100894.13;;;4.04;42.63
4570;BME280;2297;51.442;6.996;2024-01-07T11:13:05;100896.81;;;4.08;42.63
4570;BME280;2297;51.442;6.996;2024-01-07T11:15:50;100890.84;;;4.17;42.48
4570;BME280;2297;51.442;6.996;2024-01-07T11:18:17;100900.28;;;4.07;42.06
4570;BME280;2297;51.442;6.996;2024-01-07T11:21:00;100901.34;;;4.20;42.02
4570;BME280;2297;51.442;6.996;2024-01-07T11:23:29;100907.34;;;4.14;41.71
4570;BME280;2297;51.442;6.996;2024-01-07T11:25:58;100909.13;;;4.15;42.08
4570;BME280;2297;51.442;6.996;2024-01-07T11:28:48;100903.84;;;4.12;41.59
4570;BME280;2297;51.442;6.996;2024-01-07T11:31:16;100907.13;;;3.99;41.75
4570;BME280;2297;51.442;6.996;2024-01-07T11:33:45;100900.88;;;3.89;41.82
4570;BME280;2297;51.442;6.996;2024-01-07T11:36:13;100912.41;;;4.02;41.62
4570;BME280;2297;51.442;6.996;2024-01-07T11:38:43;100917.59;;;3.99;41.35
4570;BME280;2297;51.442;6.996;2024-01-07T11:41:13;100917.78;;;4.11;41.41
4570;BME280;2297;51.442;6.996;2024-01-07T11:43:56;100918.53;;;4.03;40.80
4570;BME280;2297;51.442;6.996;2024-01-07T11:46:24;100914.91;;;3.96;40.61
4570;BME280;2297;51.442;6.996;2024-01-07T11:48:53;100921.09;;;4.01;40.27
4570;BME280;2297;51.442;6.996;2024-01-07T11:51:24;100915.78;;;3.95;40.12
4570;BME280;2297;51.442;6.996;2024-01-07T11:53:50;100923.41;;;3.82;39.81
4570;BME280;2297;51.442;6.996;2024-01-07T11:59:34;100920.13;;;3.96;39.64
4570;BME280;2297;51.442;6.996;2024-01-07T12:02:02;100927.09;;;3.95;39.17
4570;BME280;2297;51.442;6.996;2024-01-07T12:04:29;100924.50;;;3.97;39.22
4570;BME280;2297;51.442;6.996;2024-01-07T12:06:56;100934.09;;;3.96;39.14
4570;BME280;2297;51.442;6.996;2024-01-07T12:09:23;100923.59;;;3.93;39.13
4570;BME280;2297;51.442;6.996;2024-01-07T12:11:50;100922.84;;;4.02;38.72
4570;BME280;2297;51.442;6.996;2024-01-07T12:14:17;100932.44;;;4.00;38.34
4570;BME280;2297;51.442;6.996;2024-01-07T12:16:46;100936.69;;;3.95;39.10
4570;BME280;2297;51.442;6.996;2024-01-07T12:19:13;100934.97;;;3.97;38.69
4570;BME280;2297;51.442;6.996;2024-01-07T12:21:39;100934.97;;;3.97;38.88
4570;BME280;2297;51.442;6.996;2024-01-07T12:24:06;100937.38;;;3.83;38.69
4570;BME280;2297;51.442;6.996;2024-01-07T12:26:33;100944.25;;;3.78;38.56
4570;BME280;2297;51.442;6.996;2024-01-07T12:29:00;100944.88;;;3.66;38.86
4570;BME280;2297;51.442;6.996;2024-01-07T12:31:29;100954.84;;;3.86;38.59
4570;BME280;2297;51.442;6.996;2024-01-07T12:33:58;100954.91;;;3.92;38.93
4570;BME280;2297;51.442;6.996;2024-01-07T12:36:25;100954.91;;;3.92;38.10
4570;BME280;2297;51.442;6.996;2024-01-07T12:38:52;100960.00;;;3.82;38.68
4570;BME280;2297;51.442;6.996;2024-01-07T12:41:21;100967.13;;;3.91;38.66
4570;BME280;2297;51.442;6.996;2024-01-07T12:43:48;100962.56;;;3.79;38.41
4570;BME280;2297;51.442;6.996;2024-01-07T12:46:15;100963.38;;;3.75;38.27
4570;BME280;2297;51.442;6.996;2024-01-07T12:48:44;100971.38;;;3.85;38.35
4570;BME280;2297;51.442;6.996;2024-01-07T12:51:12;100971.53;;;3.94;38.11
4570;BME280;2297;51.442;6.996;2024-01-07T12:53:39;100976.53;;;3.81;37.87
4570;BME280;2297;51.442;6.996;2024-01-07T12:56:06;100977.28;;;3.76;37.87
4570;BME280;2297;51.442;6.996;2024-01-07T12:58:33;100982.31;;;3.67;37.92
4570;BME280;2297;51.442;6.996;2024-01-07T13:00:59;100981.69;;;3.78;37.43
4570;BME280;2297;51.442;6.996;2024-01-07T13:03:26;100983.50;;;3.82;37.91
4570;BME280;2297;51.442;6.996;2024-01-07T13:05:53;100988.03;;;3.91;37.87
4570;BME280;2297;51.442;6.996;2024-01-07T13:08:21;100995.09;;;3.97;37.74
4570;BME280;2297;51.442;6.996;2024-01-07T13:10:51;100989.84;;;3.95;38.20
4570;BME280;2297;51.442;6.996;2024-01-07T13:13:17;101002.78;;;3.88;37.44
4570;BME280;2297;51.442;6.996;2024-01-07T13:15:44;101004.50;;;3.86;38.19
4570;BME280;2297;51.442;6.996;2024-01-07T13:18:11;101002.84;;;3.91;38.07
4570;BME280;2297;51.442;6.996;2024-01-07T13:20:38;101007.63;;;3.69;37.60
4570;BME280;2297;51.442;6.996;2024-01-07T13:23:05;100999.16;;;3.79;37.68
4570;BME280;2297;51.442;6.996;2024-01-07T13:25:33;101015.09;;;3.95;37.20
4570;BME280;2297;51.442;6.996;2024-01-07T13:28:00;101013.06;;;3.78;36.89
4570;BME280;2297;51.442;6.996;2024-01-07T13:30:26;101013.75;;;3.70;36.75